Time;durP1;ratioP1;P1;durP2;ratioP2;P2;SDS_P1;SDS_P2;PMS_P1;PMS_P2;Temp;Humidity;BMP_temperature;BMP_pressure;BME280_temperature;BME280_humidity;BME280_pressure;Samples;Min_cycle;Max_cycle;Signal;HPM_P1;HPM_P2
2022/06/19 00:00:09;;;;;;;7.80;3.47;;;;;;;16.53;71.92;100889.38;18423398;32;20081;-66
2022/06/19 00:10:14;;;;;;;6.35;3.60;;;;;;;15.79;73.74;100895.88;18475350;31;20101;-66
2022/06/19 00:20:17;;;;;;;5.25;3.08;;;;;;;16.15;72.42;100892.69;18422327;31;20104;-66
2022/06/19 00:30:22;;;;;;;6.00;2.80;;;;;;;16.31;71.62;100881.84;18422290;32;20120;-66
2022/06/19 00:40:26;;;;;;;6.30;3.12;;;;;;;16.22;71.97;100875.88;18421776;32;20100;-67
2022/06/19 00:50:32;;;;;;;8.48;3.50;;;;;;;16.31;71.56;100879.22;18386230;32;20108;-66
2022/06/19 01:00:36;;;;;;;8.13;3.70;;;;;;;16.06;72.58;100863.87;18390773;32;20096;-65
2022/06/19 01:10:43;;;;;;;6.93;3.60;;;;;;;15.79;73.91;100873.94;18420634;32;20574;-66
2022/06/19 01:20:47;;;;;;;6.95;3.30;;;;;;;16.05;72.21;100876.16;18419178;31;20111;-66
2022/06/19 01:30:53;;;;;;;7.05;3.53;;;;;;;15.64;73.48;100862.75;18393050;32;20429;-66
2022/06/19 01:41:00;;;;;;;8.05;3.60;;;;;;;15.76;73.64;100859.06;18358352;31;20166;-66
2022/06/19 01:51:06;;;;;;;6.53;3.30;;;;;;;16.24;71.39;100860.03;18355123;32;20165;-66
2022/06/19 02:01:10;;;;;;;6.03;3.05;;;;;;;15.15;75.54;100852.97;18354555;32;20093;-66
2022/06/19 02:11:17;;;;;;;7.43;3.37;;;;;;;15.89;72.08;100849.19;18354148;32;20141;-66
2022/06/19 02:21:22;;;;;;;7.20;3.53;;;;;;;15.25;74.63;100846.69;18353627;31;20129;-66
2022/06/19 02:31:27;;;;;;;7.25;3.55;;;;;;;15.35;73.97;100847.44;18355409;32;20093;-67
2022/06/19 02:41:32;;;;;;;6.68;3.17;;;;;;;15.59;72.44;100840.91;18362644;32;20090;-66
2022/06/19 02:51:37;;;;;;;7.10;3.60;;;;;;;15.09;74.08;100844.28;18362361;32;20119;-66
2022/06/19 03:01:40;;;;;;;8.25;3.55;;;;;;;14.75;75.93;100833.34;18361418;32;20182;-66
2022/06/19 03:11:45;;;;;;;8.85;3.85;;;;;;;14.80;75.25;100827.16;18361338;32;20097;-67
2022/06/19 03:21:49;;;;;;;8.60;3.55;;;;;;;15.02;74.83;100818.09;18360771;31;20444;-66
2022/06/19 03:31:54;;;;;;;7.18;3.15;;;;;;;14.89;75.49;100818.28;18361655;32;20093;-66
2022/06/19 03:41:57;;;;;;;8.40;3.50;;;;;;;14.85;76.31;100811.31;18360058;32;20096;-66
2022/06/19 03:52:02;;;;;;;8.98;3.50;;;;;;;15.34;75.83;100817.63;18359986;32;20089;-67
2022/06/19 04:02:07;;;;;;;7.75;3.17;;;;;;;15.87;73.99;100818.53;18359584;32;20445;-66
2022/06/19 04:12:13;;;;;;;6.03;3.12;;;;;;;16.53;72.50;100818.22;18359159;32;20112;-67
2022/06/19 04:22:16;;;;;;;6.25;3.45;;;;;;;16.91;72.61;100806.84;18358508;32;20538;-67
2022/06/19 04:32:21;;;;;;;5.80;2.92;;;;;;;18.21;70.24;100787.88;18358404;32;20141;-67
2022/06/19 04:42:24;;;;;;;6.53;2.90;;;;;;;20.74;61.45;100795.53;18357532;32;20398;-67
2022/06/19 04:52:29;;;;;;;6.70;2.60;;;;;;;21.84;56.48;100797.38;18358327;32;20102;-68
2022/06/19 05:02:32;;;;;;;6.85;2.35;;;;;;;24.20;50.87;100803.97;18357268;32;20121;-67
2022/06/19 05:12:37;;;;;;;3.58;2.20;;;;;;;23.08;51.99;100804.19;18356955;32;20096;-67
2022/06/19 05:22:40;;;;;;;4.47;2.37;;;;;;;24.02;51.30;100809.31;18402978;31;20085;-67
2022/06/19 05:32:45;;;;;;;4.15;2.30;;;;;;;23.94;50.82;100815.03;18411840;32;20464;-67
2022/06/19 05:42:49;;;;;;;4.12;1.92;;;;;;;23.91;50.20;100815.22;18390136;32;20441;-67
2022/06/19 05:52:54;;;;;;;4.03;1.92;;;;;;;23.22;53.35;100817.72;18412990;32;20193;-67
2022/06/19 06:02:58;;;;;;;4.00;2.03;;;;;;;22.65;53.37;100818.62;18418434;32;20492;-66
2022/06/19 06:13:02;;;;;;;8.05;2.00;;;;;;;23.34;49.83;100818.94;18426687;32;20093;-67
2022/06/19 06:23:06;;;;;;;4.53;2.00;;;;;;;23.43;50.68;100801.62;18479714;31;20118;-66
2022/06/19 06:33:15;;;;;;;6.75;2.87;;;;;;;24.29;49.07;100814.16;18427071;32;20096;-66
2022/06/19 06:43:19;;;;;;;4.60;1.83;;;;;;;25.45;46.76;100793.50;18406366;32;20104;-66
2022/06/19 06:53:23;;;;;;;3.45;1.87;;;;;;;25.31;47.30;100796.97;18377876;32;20108;-66
2022/06/19 07:03:26;;;;;;;6.05;1.80;;;;;;;25.61;48.46;100801.53;18361986;32;20108;-67
2022/06/19 07:13:31;;;;;;;4.57;1.85;;;;;;;26.79;45.26;100801.47;18361051;32;20097;-67
2022/06/19 07:23:35;;;;;;;3.12;1.60;;;;;;;27.81;41.26;100803.78;18358979;32;20448;-67
2022/06/19 07:33:40;;;;;;;4.85;1.80;;;;;;;30.68;36.27;100791.59;18409977;31;20097;-68
2022/06/19 07:43:43;;;;;;;4.10;1.60;;;;;;;31.34;34.10;100781.72;18356682;32;20111;-67
2022/06/19 07:53:48;;;;;;;4.90;1.77;;;;;;;30.27;35.28;100773.25;18356064;32;20092;-68
2022/06/19 08:03:51;;;;;;;3.60;1.85;;;;;;;30.04;34.31;100765.13;18355256;32;20244;-67
2022/06/19 08:13:56;;;;;;;5.12;1.80;;;;;;;30.97;34.02;100751.47;18355461;32;20166;-67
2022/06/19 08:24:00;;;;;;;3.42;1.60;;;;;;;29.98;32.14;100732.47;18352657;32;93817;-66
2022/06/19 08:34:05;;;;;;;2.28;1.50;;;;;;;30.26;30.28;100720.41;18357726;32;20101;-66
2022/06/19 08:44:32;;;;;;;4.03;1.62;;;;;;;29.87;28.97;100725.25;18358420;32;20112;-67
2022/06/19 08:54:44;;;;;;;8.70;2.10;;;;;;;30.28;29.12;100729.19;18357453;32;20111;-66
2022/06/19 09:15:16;;;;;;;4.10;2.00;;;;;;;29.81;28.80;100734.66;18356824;32;20105;-66
2022/06/19 09:25:31;;;;;;;4.70;1.90;;;;;;;30.06;28.97;100715.72;18409116;31;20093;-67
2022/06/19 09:35:39;;;;;;;3.72;1.85;;;;;;;30.81;27.73;100697.97;18355833;32;20437;-67
2022/06/19 09:45:45;;;;;;;4.47;1.80;;;;;;;30.91;27.82;100694.50;18354917;32;20140;-67
2022/06/19 09:55:53;;;;;;;4.72;2.10;;;;;;;31.05;28.21;100702.28;18355079;32;20108;-67
2022/06/19 10:06:01;;;;;;;4.32;2.25;;;;;;;31.32;28.07;100684.78;18353990;32;20109;-68
2022/06/19 10:16:16;;;;;;;4.03;1.80;;;;;;;31.51;25.88;100667.84;18353484;32;20104;-67
2022/06/19 10:26:29;;;;;;;5.03;1.45;;;;;;;31.50;26.39;100663.44;18354323;32;20119;-67
2022/06/19 10:36:38;;;;;;;2.53;1.30;;;;;;;31.47;26.41;100646.66;18352842;32;20133;-68
2022/06/19 10:47:09;;;;;;;2.85;1.35;;;;;;;31.73;25.74;100646.22;18352376;32;20113;-68
2022/06/19 10:57:17;;;;;;;3.72;1.83;;;;;;;31.69;24.40;100633.00;18361368;32;20108;-67
2022/06/19 11:07:22;;;;;;;6.33;2.33;;;;;;;31.99;26.05;100621.47;18414463;31;20636;-67
2022/06/19 11:17:33;;;;;;;4.32;2.28;;;;;;;32.10;27.13;100605.16;18361356;32;20436;-67
2022/06/19 11:27:36;;;;;;;5.43;2.20;;;;;;;32.61;23.67;100602.38;18362782;32;20227;-67
2022/06/19 11:37:51;;;;;;;6.78;1.75;;;;;;;32.36;23.64;100586.59;18374313;32;20144;-68
2022/06/19 11:48:05;;;;;;;5.45;1.95;;;;;;;33.16;23.53;100574.72;18434959;31;20105;-67
2022/06/19 11:58:20;;;;;;;5.05;1.67;;;;;;;33.12;23.43;100573.28;18377477;32;20362;-67
2022/06/19 12:08:25;;;;;;;4.97;1.70;;;;;;;33.29;22.63;100563.53;18364170;32;20135;-69
2022/06/19 12:18:31;;;;;;;4.47;1.83;;;;;;;33.56;21.46;100545.66;18388082;32;20130;-67
2022/06/19 12:28:38;;;;;;;2.87;1.98;;;;;;;33.75;23.75;100538.41;18390406;32;20108;-68
2022/06/19 12:38:43;;;;;;;3.97;1.55;;;;;;;33.19;21.83;100527.56;18387563;32;20108;-67
2022/06/19 12:48:50;;;;;;;2.97;1.50;;;;;;;33.30;22.17;100508.47;18384827;32;20120;-66
2022/06/19 12:59:11;;;;;;;3.65;1.75;;;;;;;33.24;22.64;100506.34;18357442;32;20129;-66
2022/06/19 13:09:31;;;;;;;3.83;1.37;;;;;;;33.72;21.94;100484.59;18409501;31;20505;-67
2022/06/19 13:19:54;;;;;;;3.90;1.67;;;;;;;33.29;22.18;100482.41;18356110;32;20358;-66
2022/06/19 13:30:11;;;;;;;3.58;1.50;;;;;;;33.69;22.28;100465.97;18419199;31;20109;-66
2022/06/19 13:40:23;;;;;;;3.08;1.90;;;;;;;33.90;20.72;100452.09;18355863;32;20085;-66
2022/06/19 13:50:31;;;;;;;2.75;1.10;;;;;;;33.08;21.49;100450.22;18358999;32;20120;-67
2022/06/19 14:00:40;;;;;;;2.40;0.98;;;;;;;33.08;21.44;100439.41;18407700;32;20105;-66
2022/06/19 14:10:48;;;;;;;1.30;1.05;;;;;;;32.54;21.57;100428.34;18470624;31;20128;-66
2022/06/19 14:21:07;;;;;;;1.75;1.10;;;;;;;32.56;22.08;100404.75;18413009;32;20133;-66
2022/06/19 14:31:11;;;;;;;;;;;;;;;32.74;21.67;100392.16;18421185;32;20108;-66
2022/06/19 14:41:26;;;;;;;2.67;1.30;;;;;;;32.43;21.19;100378.88;18427098;32;20544;-67
2022/06/19 14:51:39;;;;;;;3.40;1.20;;;;;;;32.61;22.63;100364.59;18426314;32;20109;-66
2022/06/19 15:01:44;;;;;;;5.03;1.48;;;;;;;32.82;23.19;100352.69;18426351;32;20122;-66
2022/06/19 15:11:48;;;;;;;3.85;1.50;;;;;;;32.98;24.56;100344.81;18425887;32;20088;-66
2022/06/19 15:22:33;;;;;;;7.68;1.83;;;;;;;32.24;23.66;100334.69;18426103;31;20096;-66
2022/06/19 15:32:59;;;;;;;2.55;1.42;;;;;;;32.85;23.19;100326.22;18425018;32;20090;-66
2022/06/19 15:43:35;;;;;;;3.03;1.30;;;;;;;32.14;24.04;100311.44;18424207;31;20100;-64
2022/06/19 15:53:46;;;;;;;2.00;1.15;;;;;;;32.40;24.01;100284.66;18423752;32;20127;-65
2022/06/19 16:03:53;;;;;;;3.85;1.20;;;;;;;32.17;24.11;100271.50;18423545;32;20089;-65
2022/06/19 16:14:00;;;;;;;2.28;1.15;;;;;;;31.67;23.08;100262.66;18423093;32;20129;-65
2022/06/19 16:24:05;;;;;;;2.22;1.40;;;;;;;31.61;24.34;100260.56;18417820;32;20119;-65
2022/06/19 16:34:20;;;;;;;3.12;1.50;;;;;;;31.42;24.00;100256.88;18421146;32;20141;-64
2022/06/19 16:44:31;;;;;;;1.87;1.20;;;;;;;31.54;24.81;100256.72;18422141;32;20502;-64
2022/06/19 16:54:48;;;;;;;2.40;1.25;;;;;;;31.31;24.79;100250.78;18474203;31;20096;-65
2022/06/19 17:04:56;;;;;;;2.05;1.20;;;;;;;31.27;25.60;100244.81;18421295;32;20133;-65
2022/06/19 17:15:00;;;;;;;3.83;1.50;;;;;;;30.84;26.46;100236.97;18420936;32;20118;-64
2022/06/19 17:25:08;;;;;;;3.45;1.70;;;;;;;30.75;26.76;100226.16;18419963;31;20393;-65
2022/06/19 17:35:42;;;;;;;2.62;1.40;;;;;;;30.64;26.56;100227.09;18419888;32;20089;-65
2022/06/19 17:45:49;;;;;;;4.10;1.50;;;;;;;30.64;27.10;100236.06;18419526;32;20376;-64
2022/06/19 17:55:52;;;;;;;3.97;1.40;;;;;;;30.21;28.50;100210.25;18419175;31;20625;-64
2022/06/19 18:05:57;;;;;;;2.20;1.20;;;;;;;30.29;28.87;100214.00;18425131;32;20445;-65
2022/06/19 18:26:29;;;;;;;6.12;1.95;;;;;;;29.16;33.44;100227.16;18481508;31;20357;-64
2022/06/19 18:36:32;;;;;;;1.83;1.27;;;;;;;28.75;33.11;100226.06;18427293;32;20081;-65
2022/06/19 18:46:36;;;;;;;2.92;1.42;;;;;;;28.26;33.42;100226.34;18427665;32;20100;-64
2022/06/19 18:57:00;;;;;;;7.00;1.80;;;;;;;27.77;35.10;100228.38;18427423;32;20092;-64
2022/06/19 19:07:07;;;;;;;5.37;1.77;;;;;;;26.77;38.97;100233.06;18479027;31;20118;-64
2022/06/19 19:17:13;;;;;;;2.70;1.50;;;;;;;26.07;39.71;100234.47;18424417;32;20129;-64
2022/06/19 19:27:19;;;;;;;2.83;1.55;;;;;;;25.52;40.77;100259.56;18423952;32;20519;-65
2022/06/19 19:37:23;;;;;;;4.70;1.65;;;;;;;24.67;42.85;100257.91;18477316;31;20164;-65
2022/06/19 19:47:28;;;;;;;4.80;1.62;;;;;;;23.67;45.96;100276.41;18424126;32;20188;-65
2022/06/19 19:57:31;;;;;;;4.37;1.85;;;;;;;23.58;46.28;100272.47;18423342;32;20460;-65
2022/06/19 20:18:02;;;;;;;3.78;1.85;;;;;;;22.65;50.43;100267.03;18423105;32;20097;-65
2022/06/19 20:28:09;;;;;;;2.78;1.70;;;;;;;22.11;52.10;100268.94;18418735;32;20141;-65
2022/06/19 20:38:15;;;;;;;7.35;2.00;;;;;;;21.81;52.67;100274.06;18382237;32;20081;-65
2022/06/19 20:48:22;;;;;;;8.63;2.10;;;;;;;21.59;52.97;100276.00;18358050;32;20787;-65
2022/06/19 20:58:25;;;;;;;5.40;2.55;;;;;;;21.34;54.72;100276.34;18357674;32;20558;-65
2022/06/19 21:08:33;;;;;;;5.85;2.40;;;;;;;20.49;58.20;100274.09;18357280;32;20121;-65
2022/06/19 21:18:36;;;;;;;12.23;3.05;;;;;;;20.29;58.94;100272.34;18356973;32;20427;-65
2022/06/19 21:28:40;;;;;;;6.32;2.55;;;;;;;20.58;58.48;100274.63;18368890;32;20097;-65
2022/06/19 21:38:44;;;;;;;7.07;2.33;;;;;;;20.45;59.43;100271.66;18385711;32;20096;-64
2022/06/19 21:48:49;;;;;;;5.80;2.10;;;;;;;20.43;59.16;100276.19;18447147;31;20175;-65
2022/06/19 21:58:54;;;;;;;5.78;2.40;;;;;;;20.32;58.88;100272.22;18373729;32;20090;-65
2022/06/19 22:08:59;;;;;;;7.00;2.92;;;;;;;19.92;60.37;100279.28;18407463;31;20101;-65
2022/06/19 22:19:02;;;;;;;4.93;2.45;;;;;;;19.60;61.57;100277.06;18358915;32;20090;-65
2022/06/19 22:29:07;;;;;;;7.55;3.08;;;;;;;19.15;63.13;100268.28;18353324;32;20372;-65
2022/06/19 22:39:15;;;;;;;6.15;3.03;;;;;;;18.23;66.32;100269.06;18352952;32;20111;-65
2022/06/19 22:49:19;;;;;;;4.18;2.42;;;;;;;18.76;64.25;100264.50;18355751;32;20139;-65
2022/06/19 23:09:47;;;;;;;7.62;2.67;;;;;;;18.19;66.21;100271.88;18361742;32;20116;-65
2022/06/19 23:19:51;;;;;;;8.90;3.55;;;;;;;18.43;65.91;100256.91;18361079;32;20086;-65
2022/06/19 23:29:55;;;;;;;5.78;3.12;;;;;;;18.09;66.94;100255.53;18361702;32;20101;-64
2022/06/19 23:39:59;;;;;;;8.02;3.17;;;;;;;18.17;66.53;100253.47;18360569;32;20097;-65
2022/06/19 23:50:05;;;;;;;4.65;2.65;;;;;;;17.58;68.55;100250.16;18360267;32;20381;-65
